createdAt,value
2023-02-28T00:01:56.384Z,6.70
2023-02-28T00:03:58.275Z,6.70
2023-02-28T00:05:59.933Z,6.70
2023-02-28T00:08:01.682Z,6.70
2023-02-28T00:10:04.604Z,6.60
2023-02-28T00:12:10.952Z,6.70
2023-02-28T00:14:12.598Z,6.60
2023-02-28T00:16:16.019Z,6.60
2023-02-28T00:18:17.709Z,6.60
2023-02-28T00:20:19.764Z,6.60
2023-02-28T00:22:21.994Z,6.60
2023-02-28T00:24:23.660Z,6.60
2023-02-28T00:26:25.380Z,6.60
2023-02-28T00:28:27.187Z,6.60
2023-02-28T00:30:28.890Z,6.50
2023-02-28T00:32:31.003Z,6.50
2023-02-28T00:34:38.439Z,6.50
2023-02-28T00:36:41.783Z,6.50
2023-02-28T00:38:43.512Z,6.50
2023-02-28T00:40:45.204Z,6.50
2023-02-28T00:42:46.943Z,6.50
2023-02-28T00:44:48.615Z,6.50
2023-02-28T00:46:50.273Z,6.50
2023-02-28T00:48:51.892Z,6.50
2023-02-28T00:50:53.582Z,6.40
2023-02-28T00:52:55.250Z,6.40
2023-02-28T00:54:56.957Z,6.40
2023-02-28T00:56:58.664Z,6.40
2023-02-28T00:59:00.441Z,6.40
2023-02-28T01:01:02.201Z,6.30
2023-02-28T01:03:03.812Z,6.30
2023-02-28T01:05:05.858Z,6.30
2023-02-28T01:07:07.482Z,6.30
2023-02-28T01:09:09.515Z,6.20
2023-02-28T01:11:12.585Z,6.30
2023-02-28T01:13:15.690Z,6.20
2023-02-28T01:15:17.343Z,6.20
2023-02-28T01:17:20.376Z,6.20
2023-02-28T01:19:22.029Z,6.10
2023-02-28T01:21:24.172Z,6.10
2023-02-28T01:23:25.810Z,6.10
2023-02-28T01:25:27.495Z,6.10
2023-02-28T01:27:29.887Z,6.10
2023-02-28T01:29:31.587Z,6.10
2023-02-28T01:31:33.390Z,6.10
2023-02-28T01:33:35.382Z,6.10
2023-02-28T01:35:37.205Z,6.10
2023-02-28T01:37:38.877Z,6.10
2023-02-28T01:39:40.601Z,6.00
2023-02-28T01:41:42.489Z,6.00
2023-02-28T01:43:44.112Z,6.00
2023-02-28T01:45:47.416Z,6.00
2023-02-28T01:47:51.065Z,6.00
2023-02-28T01:49:53.942Z,6.00
2023-02-28T01:51:55.948Z,6.00
2023-02-28T01:54:00.584Z,6.00
2023-02-28T01:56:04.653Z,6.00
2023-02-28T01:58:07.051Z,6.00
2023-02-28T02:00:10.136Z,5.90
2023-02-28T02:02:22.737Z,5.90
2023-02-28T02:04:26.010Z,5.90
2023-02-28T02:06:34.856Z,5.90
2023-02-28T02:08:37.606Z,5.90
2023-02-28T02:10:41.523Z,5.90
2023-02-28T02:13:01.586Z,5.90
2023-02-28T02:15:10.770Z,5.90
2023-02-28T02:17:20.125Z,5.90
2023-02-28T02:19:40.436Z,5.80
2023-02-28T02:21:42.089Z,5.80
2023-02-28T02:23:58.336Z,5.80
2023-02-28T02:26:15.651Z,5.80
2023-02-28T02:28:23.334Z,5.80
2023-02-28T02:30:28.035Z,5.80
2023-02-28T02:32:36.057Z,5.80
2023-02-28T02:34:37.728Z,5.70
2023-02-28T02:36:41.929Z,5.70
2023-02-28T02:38:49.031Z,5.70
2023-02-28T02:40:53.431Z,5.70
2023-02-28T02:42:58.096Z,5.70
2023-02-28T02:45:02.231Z,5.70
2023-02-28T02:47:06.397Z,5.70
2023-02-28T02:49:11.237Z,5.60
2023-02-28T02:51:15.927Z,5.60
2023-02-28T02:53:19.199Z,5.60
2023-02-28T02:55:21.418Z,5.60
2023-02-28T02:57:39.083Z,5.60
2023-02-28T02:59:41.696Z,5.60
2023-02-28T03:01:43.810Z,5.60
2023-02-28T03:03:46.063Z,5.60
2023-02-28T03:05:49.720Z,5.50
2023-02-28T03:07:51.427Z,5.50
2023-02-28T03:09:53.932Z,5.50
2023-02-28T03:11:56.749Z,5.50
2023-02-28T03:13:58.428Z,5.50
2023-02-28T03:16:03.858Z,5.50
2023-02-28T03:18:09.336Z,5.50
2023-02-28T03:20:26.605Z,5.40
2023-02-28T03:22:30.977Z,5.40
2023-02-28T03:24:42.377Z,5.50
2023-02-28T03:26:46.035Z,5.40
2023-02-28T03:28:53.456Z,5.40
2023-02-28T03:30:57.009Z,5.40
2023-02-28T03:33:02.286Z,5.40
2023-02-28T03:35:08.423Z,5.40
2023-02-28T03:37:12.805Z,5.40
2023-02-28T03:39:23.273Z,5.30
2023-02-28T03:41:28.835Z,5.30
2023-02-28T03:43:32.883Z,5.30
2023-02-28T03:45:36.733Z,5.30
2023-02-28T03:47:41.712Z,5.30
2023-02-28T03:49:46.701Z,5.30
2023-02-28T03:51:50.356Z,5.30
2023-02-28T03:53:54.382Z,5.30
2023-02-28T03:56:05.036Z,5.30
2023-02-28T03:58:13.428Z,5.30
2023-02-28T04:00:18.543Z,5.30
2023-02-28T04:02:20.247Z,5.20
2023-02-28T04:04:22.179Z,5.20
2023-02-28T04:06:24.283Z,5.20
2023-02-28T04:08:25.928Z,5.20
2023-02-28T04:10:27.580Z,5.20
2023-02-28T04:12:29.226Z,5.30
2023-02-28T04:14:30.846Z,5.30
2023-02-28T04:16:35.723Z,5.30
2023-02-28T04:18:37.679Z,5.20
2023-02-28T04:20:39.299Z,5.20
2023-02-28T04:22:40.898Z,5.20
2023-02-28T04:24:42.564Z,5.20
2023-02-28T04:26:45.720Z,5.20
2023-02-28T04:28:47.355Z,5.20
2023-02-28T04:30:48.981Z,5.20
2023-02-28T04:32:50.608Z,5.20
2023-02-28T04:34:52.228Z,5.10
2023-02-28T04:37:11.529Z,5.10
2023-02-28T04:39:14.859Z,5.10
2023-02-28T04:41:16.954Z,5.10
2023-02-28T04:43:18.569Z,5.10
2023-02-28T04:45:20.202Z,5.00
2023-02-28T04:47:21.823Z,5.10
2023-02-28T04:49:23.486Z,5.00
2023-02-28T04:51:25.136Z,5.00
2023-02-28T04:53:26.782Z,5.00
2023-02-28T04:55:28.401Z,5.10
2023-02-28T04:57:30.944Z,5.10
2023-02-28T04:59:32.596Z,5.10
2023-02-28T05:01:35.703Z,5.10
2023-02-28T05:03:37.328Z,5.10
2023-02-28T05:05:38.950Z,5.10
2023-02-28T05:07:40.611Z,5.10
2023-02-28T05:09:42.237Z,5.10
2023-02-28T05:11:43.890Z,5.10
2023-02-28T05:13:45.871Z,5.10
2023-02-28T05:15:47.529Z,5.10
2023-02-28T05:17:49.217Z,5.10
2023-02-28T05:19:50.800Z,5.10
2023-02-28T05:21:53.798Z,5.10
2023-02-28T05:23:56.313Z,5.10
2023-02-28T05:25:58.094Z,5.10
2023-02-28T05:27:59.945Z,5.10
2023-02-28T05:30:04.344Z,5.10
2023-02-28T05:32:06.079Z,5.10
2023-02-28T05:34:07.831Z,5.10
2023-02-28T05:36:09.639Z,5.00
2023-02-28T05:38:11.322Z,5.10
2023-02-28T05:40:13.238Z,5.00
2023-02-28T05:42:14.881Z,5.10
2023-02-28T05:44:16.760Z,5.10
2023-02-28T05:46:18.407Z,5.10
2023-02-28T05:48:20.045Z,5.10
2023-02-28T05:50:21.671Z,5.10
2023-02-28T05:52:23.314Z,5.10
2023-02-28T05:54:24.985Z,5.10
2023-02-28T05:56:26.668Z,5.10
2023-02-28T05:58:31.981Z,5.10
2023-02-28T06:00:33.809Z,5.10
2023-02-28T06:02:35.474Z,5.10
2023-02-28T06:04:37.115Z,5.10
2023-02-28T06:06:40.214Z,5.10
2023-02-28T06:08:44.277Z,5.10
2023-02-28T06:10:46.193Z,5.10
2023-02-28T06:12:47.827Z,5.10
2023-02-28T06:14:49.452Z,5.10
2023-02-28T06:16:51.295Z,5.10
2023-02-28T06:18:53.625Z,5.10
2023-02-28T06:20:56.287Z,5.10
2023-02-28T06:22:59.423Z,5.10
2023-02-28T06:25:01.074Z,5.10
2023-02-28T06:27:05.897Z,5.10
2023-02-28T06:29:08.361Z,5.10
2023-02-28T06:31:11.184Z,5.00
2023-02-28T06:33:12.868Z,5.10
2023-02-28T06:35:14.751Z,5.00
2023-02-28T06:37:19.468Z,5.00
2023-02-28T06:39:21.237Z,5.00
2023-02-28T06:41:24.139Z,5.00
2023-02-28T06:43:26.384Z,5.00
2023-02-28T06:45:28.024Z,5.00
2023-02-28T06:47:31.479Z,5.00
2023-02-28T06:49:34.119Z,5.00
2023-02-28T06:51:37.005Z,4.90
2023-02-28T06:53:39.484Z,5.00
2023-02-28T06:55:41.207Z,5.00
2023-02-28T06:57:42.892Z,5.00
2023-02-28T06:59:44.566Z,5.00
2023-02-28T07:01:46.347Z,5.00
2023-02-28T07:03:52.980Z,5.00
2023-02-28T07:05:54.753Z,5.00
2023-02-28T07:07:56.430Z,5.00
2023-02-28T07:09:58.095Z,5.00
2023-02-28T07:12:01.372Z,5.00
2023-02-28T07:14:03.282Z,5.00
2023-02-28T07:16:06.580Z,5.00
2023-02-28T07:18:08.243Z,5.00
2023-02-28T07:20:10.207Z,5.00
2023-02-28T07:22:12.207Z,5.00
2023-02-28T07:24:16.735Z,5.00
2023-02-28T07:26:19.653Z,5.00
2023-02-28T07:28:21.280Z,5.00
2023-02-28T07:30:23.126Z,5.00
2023-02-28T07:32:24.929Z,5.00
2023-02-28T07:34:26.942Z,5.00
2023-02-28T07:36:28.593Z,5.10
2023-02-28T07:38:30.195Z,5.00
2023-02-28T07:40:31.992Z,5.00
2023-02-28T07:42:33.615Z,5.10
2023-02-28T07:44:35.294Z,5.10
2023-02-28T07:46:37.639Z,5.10
2023-02-28T07:48:39.698Z,5.10
2023-02-28T07:50:41.371Z,5.10
2023-02-28T07:52:43.083Z,5.10
2023-02-28T07:54:44.776Z,5.10
2023-02-28T07:56:46.416Z,5.20
2023-02-28T07:58:48.101Z,5.20
2023-02-28T08:00:49.807Z,5.20
2023-02-28T08:02:52.222Z,5.20
2023-02-28T08:04:53.963Z,5.20
2023-02-28T08:06:57.346Z,5.20
2023-02-28T08:08:59.054Z,5.20
2023-02-28T08:11:04.302Z,5.20
2023-02-28T08:13:06.074Z,5.20
2023-02-28T08:15:08.054Z,5.20
2023-02-28T08:17:10.829Z,5.30
2023-02-28T08:19:12.409Z,5.30
2023-02-28T08:21:14.057Z,5.30
2023-02-28T08:23:16.087Z,5.30
2023-02-28T08:25:17.854Z,5.40
2023-02-28T08:27:19.476Z,5.40
2023-02-28T08:29:21.223Z,5.40
2023-02-28T08:31:23.932Z,5.50
2023-02-28T08:33:26.243Z,5.50
2023-02-28T08:35:27.988Z,5.50
2023-02-28T08:37:29.683Z,5.50
2023-02-28T08:39:31.361Z,5.50
2023-02-28T08:41:33.493Z,5.60
2023-02-28T08:43:35.758Z,5.60
2023-02-28T08:45:37.495Z,5.60
2023-02-28T08:47:39.282Z,5.60
2023-02-28T08:49:41.090Z,5.60
2023-02-28T08:51:42.870Z,5.70
2023-02-28T08:53:44.547Z,5.70
2023-02-28T08:55:46.193Z,5.70
2023-02-28T08:57:47.849Z,5.70
2023-02-28T08:59:49.504Z,5.70
2023-02-28T09:01:51.338Z,5.80
2023-02-28T09:03:53.281Z,5.80
2023-02-28T09:05:54.960Z,5.80
2023-02-28T09:07:56.700Z,5.80
2023-02-28T09:09:58.884Z,5.80
2023-02-28T09:12:00.904Z,5.90
2023-02-28T09:14:04.227Z,5.90
2023-02-28T09:16:06.594Z,5.90
2023-02-28T09:18:08.350Z,6.00
2023-02-28T09:20:10.530Z,6.00
2023-02-28T09:22:12.348Z,6.00
2023-02-28T09:24:16.067Z,6.10
2023-02-28T09:26:18.993Z,6.10
2023-02-28T09:28:21.297Z,6.10
2023-02-28T09:30:23.126Z,6.10
2023-02-28T09:32:25.018Z,6.20
2023-02-28T09:34:27.325Z,6.20
2023-02-28T09:36:43.245Z,6.20
2023-02-28T09:38:48.745Z,6.20
2023-02-28T09:40:52.830Z,6.20
2023-02-28T09:42:56.000Z,6.30
2023-02-28T09:44:59.334Z,6.30
2023-02-28T09:47:12.240Z,6.40
2023-02-28T09:49:16.015Z,6.40
2023-02-28T09:51:36.211Z,6.50
2023-02-28T09:53:40.795Z,6.50
2023-02-28T09:55:58.846Z,6.60
2023-02-28T09:58:01.173Z,6.70
2023-02-28T10:00:11.158Z,6.70
2023-02-28T10:02:21.200Z,6.80
2023-02-28T10:04:22.946Z,6.80
2023-02-28T10:06:29.351Z,6.90
2023-02-28T10:08:34.018Z,7.00
2023-02-28T10:10:39.524Z,7.00
2023-02-28T10:12:44.264Z,7.10
2023-02-28T10:14:47.515Z,7.10
2023-02-28T10:16:57.209Z,7.20
2023-02-28T10:19:01.945Z,7.30
2023-02-28T10:21:03.824Z,7.30
2023-02-28T10:23:11.512Z,7.40
2023-02-28T10:25:20.677Z,7.50
2023-02-28T10:27:23.635Z,7.50
2023-02-28T10:29:25.295Z,7.60
2023-02-28T10:31:27.050Z,7.60
2023-02-28T10:33:28.775Z,7.70
2023-02-28T10:35:30.446Z,7.70
2023-02-28T10:37:33.146Z,7.80
2023-02-28T10:39:46.729Z,7.80
2023-02-28T10:41:48.641Z,7.80
2023-02-28T10:43:53.218Z,7.90
2023-02-28T10:46:06.082Z,7.90
2023-02-28T10:48:27.770Z,7.90
2023-02-28T10:50:52.384Z,7.90
2023-02-28T10:52:54.176Z,7.90
2023-02-28T10:55:14.345Z,8.00
2023-02-28T10:57:16.173Z,8.00
2023-02-28T10:59:31.075Z,8.00
2023-02-28T11:01:33.046Z,8.10
2023-02-28T11:03:36.135Z,8.10
2023-02-28T11:05:37.908Z,8.10
2023-02-28T11:07:52.939Z,8.10
2023-02-28T11:09:56.360Z,8.10
2023-02-28T11:11:58.306Z,8.20
2023-02-28T11:14:05.188Z,8.20
2023-02-28T11:16:08.363Z,8.30
2023-02-28T11:18:12.918Z,8.30
2023-02-28T11:20:21.801Z,8.30
2023-02-28T11:22:25.671Z,8.30
2023-02-28T11:24:38.061Z,8.40
2023-02-28T11:26:45.646Z,8.40
2023-02-28T11:28:47.456Z,8.50
2023-02-28T11:31:00.267Z,8.50
2023-02-28T11:33:18.165Z,8.60
2023-02-28T11:35:27.925Z,8.60
2023-02-28T11:37:30.192Z,8.70
2023-02-28T11:39:35.821Z,8.70
2023-02-28T11:41:46.977Z,8.80
2023-02-28T11:43:57.783Z,8.80
2023-02-28T11:46:18.686Z,8.90
2023-02-28T11:48:32.959Z,8.90
2023-02-28T11:50:43.567Z,9.00
2023-02-28T11:52:56.472Z,9.00
2023-02-28T11:54:58.134Z,9.10
2023-02-28T11:57:18.768Z,9.20
2023-02-28T11:59:39.483Z,9.30
2023-02-28T12:01:56.074Z,9.40
2023-02-28T12:04:16.121Z,9.50
2023-02-28T12:06:21.332Z,9.60
2023-02-28T12:08:41.858Z,9.70
2023-02-28T12:10:49.665Z,9.80
2023-02-28T12:13:10.419Z,9.80
2023-02-28T12:15:21.571Z,9.90
2023-02-28T12:17:33.289Z,9.90
2023-02-28T12:19:45.589Z,10.00
2023-02-28T12:21:47.396Z,10.00
2023-02-28T12:23:55.351Z,10.00
2023-02-28T12:26:05.718Z,10.10
2023-02-28T12:28:10.480Z,10.10
2023-02-28T12:30:19.294Z,10.10
2023-02-28T12:32:24.764Z,10.20
2023-02-28T12:34:28.924Z,10.20
2023-02-28T12:36:30.736Z,10.30
2023-02-28T12:38:37.332Z,10.40
2023-02-28T12:40:48.643Z,10.50
2023-02-28T12:42:52.403Z,10.50
2023-02-28T12:44:57.619Z,10.60
2023-02-28T12:47:01.296Z,10.60
2023-02-28T12:49:06.887Z,10.70
2023-02-28T12:51:09.442Z,10.70
2023-02-28T12:53:16.280Z,10.70
2023-02-28T12:55:26.755Z,10.80
2023-02-28T12:57:39.818Z,10.80
2023-02-28T12:59:41.585Z,10.90
2023-02-28T13:01:49.641Z,10.90
2023-02-28T13:03:51.319Z,11.00
2023-02-28T13:05:55.775Z,11.00
2023-02-28T13:08:16.280Z,11.10
2023-02-28T13:10:19.687Z,11.10
2023-02-28T13:12:23.752Z,11.10
2023-02-28T13:14:36.984Z,11.20
2023-02-28T13:16:57.795Z,11.20
2023-02-28T13:19:10.290Z,11.30
2023-02-28T13:21:28.753Z,11.30
2023-02-28T13:23:41.961Z,11.40
2023-02-28T13:25:48.007Z,11.40
2023-02-28T13:27:57.421Z,11.50
2023-02-28T13:29:59.337Z,11.50
2023-02-28T13:32:06.878Z,11.60
2023-02-28T13:34:16.083Z,11.60
2023-02-28T13:36:18.316Z,11.70
2023-02-28T13:38:24.016Z,11.70
2023-02-28T13:40:38.090Z,11.80
2023-02-28T13:42:46.029Z,11.90
2023-02-28T13:45:03.034Z,11.90
2023-02-28T13:47:04.734Z,12.00
2023-02-28T13:49:25.852Z,12.00
2023-02-28T13:51:41.927Z,12.00
2023-02-28T13:54:09.899Z,12.10
2023-02-28T13:56:11.667Z,12.10
2023-02-28T13:58:16.341Z,12.10
2023-02-28T14:00:22.789Z,12.10
2023-02-28T14:02:38.140Z,12.10
2023-02-28T14:04:42.653Z,12.10
2023-02-28T14:06:54.449Z,12.10
2023-02-28T14:08:56.205Z,12.10
2023-02-28T14:11:09.679Z,12.00
2023-02-28T14:13:34.385Z,12.00
2023-02-28T14:15:42.214Z,12.00
2023-02-28T14:17:44.198Z,11.90
2023-02-28T14:19:48.936Z,11.90
2023-02-28T14:21:59.583Z,11.90
2023-02-28T14:24:19.860Z,11.90
2023-02-28T14:26:24.555Z,12.00
2023-02-28T14:28:41.140Z,12.00
2023-02-28T14:31:01.621Z,12.00
2023-02-28T14:33:32.522Z,12.00
2023-02-28T14:35:46.224Z,12.00
2023-02-28T14:37:49.262Z,11.90
2023-02-28T14:39:51.633Z,11.90
2023-02-28T14:41:53.463Z,11.90
2023-02-28T14:44:01.447Z,11.90
2023-02-28T14:46:05.121Z,11.80
2023-02-28T14:48:10.205Z,11.80
2023-02-28T14:50:19.075Z,11.80
2023-02-28T14:52:31.117Z,11.70
2023-02-28T14:54:32.935Z,11.70
2023-02-28T14:56:39.271Z,11.60
2023-02-28T14:58:41.016Z,11.60
2023-02-28T15:00:51.043Z,11.60
2023-02-28T15:02:53.911Z,11.60
2023-02-28T15:04:57.661Z,11.60
2023-02-28T15:07:14.146Z,11.60
2023-02-28T15:09:17.748Z,11.60
2023-02-28T15:11:20.159Z,11.60
2023-02-28T15:13:22.324Z,11.60
2023-02-28T15:15:40.699Z,11.60
2023-02-28T15:17:52.497Z,11.60
2023-02-28T15:19:55.044Z,11.60
2023-02-28T15:22:00.105Z,11.60
2023-02-28T15:24:05.536Z,11.60
2023-02-28T15:26:07.709Z,11.60
2023-02-28T15:28:18.414Z,11.70
2023-02-28T15:30:22.210Z,11.60
2023-02-28T15:32:26.974Z,11.70
2023-02-28T15:34:42.347Z,11.70
2023-02-28T15:36:44.638Z,11.70
2023-02-28T15:38:51.166Z,11.70
2023-02-28T15:40:57.158Z,11.70
2023-02-28T15:43:00.175Z,11.60
2023-02-28T15:45:01.895Z,11.60
2023-02-28T15:47:04.846Z,11.60
2023-02-28T15:49:18.177Z,11.60
2023-02-28T15:51:21.618Z,11.50
2023-02-28T15:53:32.451Z,11.50
2023-02-28T15:55:34.194Z,11.40
2023-02-28T15:57:35.908Z,11.40
2023-02-28T15:59:37.909Z,11.30
2023-02-28T16:01:39.813Z,11.30
2023-02-28T16:03:44.201Z,11.20
2023-02-28T16:05:45.942Z,11.20
2023-02-28T16:07:49.770Z,11.10
2023-02-28T16:09:51.631Z,11.10
2023-02-28T16:11:54.116Z,11.00
2023-02-28T16:13:55.779Z,11.00
2023-02-28T16:15:57.548Z,10.90
2023-02-28T16:17:59.214Z,10.90
2023-02-28T16:20:01.102Z,10.80
2023-02-28T16:22:02.866Z,10.80
2023-02-28T16:24:04.632Z,10.70
2023-02-28T16:26:06.706Z,10.70
2023-02-28T16:28:17.415Z,10.70
2023-02-28T16:30:29.435Z,10.60
2023-02-28T16:32:31.887Z,10.60
2023-02-28T16:34:33.640Z,10.50
2023-02-28T16:36:35.302Z,10.50
2023-02-28T16:38:37.073Z,10.40
2023-02-28T16:40:38.804Z,10.40
2023-02-28T16:42:41.406Z,10.30
2023-02-28T16:44:43.180Z,10.30
2023-02-28T16:46:44.919Z,10.20
2023-02-28T16:48:46.779Z,10.20
2023-02-28T16:50:48.530Z,10.10
2023-02-28T16:52:50.589Z,10.10
2023-02-28T16:54:52.268Z,10.10
2023-02-28T16:56:54.279Z,10.10
2023-02-28T16:58:58.888Z,10.00
2023-02-28T17:01:00.612Z,10.00
2023-02-28T17:03:05.203Z,9.90
2023-02-28T17:05:08.375Z,9.90
2023-02-28T17:07:12.510Z,9.90
2023-02-28T17:09:16.456Z,9.90
2023-02-28T17:11:18.750Z,9.80
2023-02-28T17:13:20.440Z,9.80
2023-02-28T17:15:22.235Z,9.80
2023-02-28T17:17:24.121Z,9.80
2023-02-28T17:19:25.790Z,9.80
2023-02-28T17:21:27.960Z,9.70
2023-02-28T17:23:29.649Z,9.70
2023-02-28T17:25:31.412Z,9.70
2023-02-28T17:27:33.150Z,9.70
2023-02-28T17:29:34.876Z,9.70
2023-02-28T17:31:42.216Z,9.70
2023-02-28T17:33:44.102Z,9.60
2023-02-28T17:35:45.958Z,9.60
2023-02-28T17:37:47.848Z,9.60
2023-02-28T17:39:49.672Z,9.60
2023-02-28T17:41:55.770Z,9.60
2023-02-28T17:43:57.877Z,9.50
2023-02-28T17:45:59.746Z,9.50
2023-02-28T17:48:02.111Z,9.50
2023-02-28T17:50:04.144Z,9.40
2023-02-28T17:52:05.942Z,9.40
2023-02-28T17:54:07.766Z,9.40
2023-02-28T17:56:28.346Z,9.40
2023-02-28T17:58:31.979Z,9.30
2023-02-28T18:00:34.548Z,9.30
2023-02-28T18:02:36.427Z,9.30
2023-02-28T18:04:38.192Z,9.20
2023-02-28T18:06:52.388Z,9.20
2023-02-28T18:08:54.372Z,9.10
2023-02-28T18:10:56.125Z,9.10
2023-02-28T18:12:57.917Z,9.10
2023-02-28T18:14:59.839Z,9.10
2023-02-28T18:17:01.619Z,9.00
2023-02-28T18:19:03.372Z,9.00
2023-02-28T18:21:06.396Z,9.00
2023-02-28T18:23:08.262Z,9.00
2023-02-28T18:25:14.580Z,8.90
2023-02-28T18:27:16.437Z,9.00
2023-02-28T18:29:20.006Z,8.90
2023-02-28T18:31:21.869Z,8.90
2023-02-28T18:33:23.705Z,8.90
2023-02-28T18:35:35.042Z,8.90
2023-02-28T18:37:38.345Z,8.80
2023-02-28T18:39:40.621Z,8.80
2023-02-28T18:41:42.495Z,8.80
2023-02-28T18:43:44.452Z,8.80
2023-02-28T18:45:46.546Z,8.80
2023-02-28T18:47:48.368Z,8.70
2023-02-28T18:49:50.231Z,8.70
2023-02-28T18:51:52.931Z,8.70
2023-02-28T18:53:54.786Z,8.70
2023-02-28T18:56:00.172Z,8.70
2023-02-28T18:58:02.002Z,8.60
2023-02-28T19:00:03.951Z,8.60
2023-02-28T19:02:05.748Z,8.60
2023-02-28T19:04:07.745Z,8.60
2023-02-28T19:06:09.675Z,8.50
2023-02-28T19:08:11.538Z,8.50
2023-02-28T19:10:13.540Z,8.50
2023-02-28T19:12:17.188Z,8.50
2023-02-28T19:14:20.230Z,8.50
2023-02-28T19:16:22.420Z,8.40
2023-02-28T19:18:24.269Z,8.40
2023-02-28T19:20:26.170Z,8.40
2023-02-28T19:22:28.098Z,8.40
2023-02-28T19:24:29.936Z,8.40
2023-02-28T19:26:31.994Z,8.40
2023-02-28T19:28:33.980Z,8.30
2023-02-28T19:30:35.794Z,8.40
2023-02-28T19:32:37.781Z,8.30
2023-02-28T19:34:39.697Z,8.30
2023-02-28T19:36:41.608Z,8.30
2023-02-28T19:38:44.770Z,8.30
2023-02-28T19:40:46.765Z,8.30
2023-02-28T19:42:48.562Z,8.30
2023-02-28T19:44:50.428Z,8.30
2023-02-28T19:46:52.885Z,8.20
2023-02-28T19:48:55.008Z,8.20
2023-02-28T19:51:01.503Z,8.20
2023-02-28T19:53:04.267Z,8.20
2023-02-28T19:55:06.298Z,8.20
2023-02-28T19:57:08.058Z,8.20
2023-02-28T19:59:21.112Z,8.20
2023-02-28T20:01:27.929Z,8.20
2023-02-28T20:03:29.763Z,8.20
2023-02-28T20:05:31.614Z,8.20
2023-02-28T20:07:33.459Z,8.20
2023-02-28T20:09:35.238Z,8.20
2023-02-28T20:11:37.005Z,8.20
2023-02-28T20:13:39.024Z,8.20
2023-02-28T20:15:40.878Z,8.20
2023-02-28T20:17:42.791Z,8.20
2023-02-28T20:19:45.803Z,8.20
2023-02-28T20:21:47.666Z,8.10
2023-02-28T20:23:49.601Z,8.20
2023-02-28T20:25:51.591Z,8.10
2023-02-28T20:27:53.476Z,8.10
2023-02-28T20:29:55.309Z,8.10
2023-02-28T20:31:57.762Z,8.10
2023-02-28T20:33:59.596Z,8.10
2023-02-28T20:36:02.156Z,8.10
2023-02-28T20:38:04.067Z,8.10
2023-02-28T20:40:06.457Z,8.10
2023-02-28T20:42:08.275Z,8.10
2023-02-28T20:44:14.129Z,8.10
2023-02-28T20:46:16.034Z,8.10
2023-02-28T20:48:17.873Z,8.00
2023-02-28T20:50:20.036Z,8.00
2023-02-28T20:52:21.936Z,8.00
2023-02-28T20:54:23.689Z,8.00
2023-02-28T20:56:25.450Z,8.00
2023-02-28T20:58:28.514Z,7.90
2023-02-28T21:00:30.350Z,8.00
2023-02-28T21:02:32.195Z,8.00
2023-02-28T21:04:33.973Z,8.00
2023-02-28T21:06:37.955Z,8.00
2023-02-28T21:08:40.040Z,7.90
2023-02-28T21:10:41.846Z,8.00
2023-02-28T21:12:43.623Z,8.00
2023-02-28T21:14:45.383Z,7.90
2023-02-28T21:16:47.480Z,7.90
2023-02-28T21:18:49.452Z,7.90
2023-02-28T21:20:51.209Z,7.90
2023-02-28T21:22:53.846Z,7.90
2023-02-28T21:24:56.051Z,7.90
2023-02-28T21:26:59.696Z,7.90
2023-02-28T21:29:02.300Z,7.80
2023-02-28T21:31:08.042Z,7.90
2023-02-28T21:33:09.768Z,7.80
2023-02-28T21:35:11.553Z,7.80
2023-02-28T21:37:13.362Z,7.80
2023-02-28T21:39:19.734Z,7.80
2023-02-28T21:41:22.553Z,7.80
2023-02-28T21:43:26.200Z,7.80
2023-02-28T21:45:29.230Z,7.80
2023-02-28T21:47:31.053Z,7.70
2023-02-28T21:49:32.886Z,7.70
2023-02-28T21:51:34.569Z,7.70
2023-02-28T21:53:37.627Z,7.70
2023-02-28T21:55:39.682Z,7.70
2023-02-28T21:57:41.579Z,7.70
2023-02-28T21:59:43.799Z,7.70
2023-02-28T22:01:46.293Z,7.70
2023-02-28T22:03:48.815Z,7.70
2023-02-28T22:05:51.003Z,7.60
2023-02-28T22:07:52.797Z,7.60
2023-02-28T22:09:54.551Z,7.60
2023-02-28T22:11:56.895Z,7.60
2023-02-28T22:13:59.100Z,7.60
2023-02-28T22:16:08.051Z,7.60
2023-02-28T22:18:09.845Z,7.60
2023-02-28T22:20:12.712Z,7.60
2023-02-28T22:22:14.599Z,7.50
2023-02-28T22:24:19.808Z,7.50
2023-02-28T22:26:22.565Z,7.50
2023-02-28T22:28:24.679Z,7.50
2023-02-28T22:30:26.481Z,7.50
2023-02-28T22:32:28.260Z,7.50
2023-02-28T22:34:30.084Z,7.50
2023-02-28T22:36:32.669Z,7.50
2023-02-28T22:38:35.404Z,7.50
2023-02-28T22:40:37.633Z,7.50
2023-02-28T22:42:39.290Z,7.50
2023-02-28T22:44:41.040Z,7.50
2023-02-28T22:46:42.830Z,7.40
2023-02-28T22:48:44.877Z,7.50
2023-02-28T22:50:46.572Z,7.40
2023-02-28T22:52:48.287Z,7.40
2023-02-28T22:54:51.119Z,7.40
2023-02-28T22:56:52.811Z,7.40
2023-02-28T22:58:58.674Z,7.30
2023-02-28T23:01:11.670Z,7.30
2023-02-28T23:03:13.407Z,7.30
2023-02-28T23:05:15.179Z,7.30
2023-02-28T23:07:17.076Z,7.30
2023-02-28T23:09:21.384Z,7.30
2023-02-28T23:11:24.764Z,7.20
2023-02-28T23:13:26.435Z,7.20
2023-02-28T23:15:28.209Z,7.20
2023-02-28T23:17:31.362Z,7.20
2023-02-28T23:19:33.059Z,7.20
2023-02-28T23:21:35.047Z,7.20
2023-02-28T23:23:36.737Z,7.10
2023-02-28T23:25:41.832Z,7.10
2023-02-28T23:27:44.345Z,7.10
2023-02-28T23:29:46.015Z,7.10
2023-02-28T23:31:48.219Z,7.10
2023-02-28T23:33:49.905Z,7.10
2023-02-28T23:35:51.876Z,7.10
2023-02-28T23:37:55.603Z,7.10
2023-02-28T23:39:57.549Z,7.00
2023-02-28T23:41:59.245Z,7.00
2023-02-28T23:44:00.927Z,7.00
2023-02-28T23:46:04.611Z,7.00
2023-02-28T23:48:06.541Z,7.00
2023-02-28T23:50:08.680Z,7.00
2023-02-28T23:52:10.872Z,7.00
2023-02-28T23:54:12.601Z,7.00
2023-02-28T23:56:15.533Z,7.00
2023-02-28T23:58:17.212Z,7.00
